createdAt,value
2022-10-10T00:01:37.044Z,8.00
2022-10-10T00:05:40.705Z,9.25
2022-10-10T00:09:44.451Z,8.35
2022-10-10T00:13:47.517Z,8.38
2022-10-10T00:17:50.577Z,9.15
2022-10-10T00:21:54.267Z,8.35
2022-10-10T00:25:57.030Z,7.45
2022-10-10T00:29:59.854Z,7.88
2022-10-10T00:34:02.642Z,7.45
2022-10-10T00:38:06.225Z,7.90
2022-10-10T00:42:13.207Z,7.30
2022-10-10T00:46:16.446Z,7.35
2022-10-10T00:50:22.053Z,6.63
2022-10-10T00:54:26.081Z,6.13
2022-10-10T00:58:31.464Z,7.45
2022-10-10T01:02:34.471Z,7.25
2022-10-10T01:06:37.261Z,6.88
2022-10-10T01:11:10.892Z,6.35
2022-10-10T01:15:42.582Z,6.13
2022-10-10T01:19:48.432Z,6.40
2022-10-10T01:24:10.354Z,7.15
2022-10-10T01:28:40.741Z,6.20
2022-10-10T01:32:47.722Z,7.18
2022-10-10T01:37:22.147Z,7.68
2022-10-10T01:41:27.705Z,6.15
2022-10-10T01:45:33.733Z,6.80
2022-10-10T01:49:43.146Z,6.40
2022-10-10T01:53:52.039Z,7.05
2022-10-10T01:58:17.656Z,6.68
2022-10-10T02:02:42.460Z,6.93
2022-10-10T02:06:55.349Z,7.50
2022-10-10T02:11:16.438Z,7.10
2022-10-10T02:15:23.900Z,7.13
2022-10-10T02:19:28.745Z,6.80
2022-10-10T02:23:33.862Z,7.15
2022-10-10T02:27:48.631Z,7.10
2022-10-10T02:32:00.079Z,6.68
2022-10-10T02:36:04.647Z,7.38
2022-10-10T02:40:10.472Z,6.60
2022-10-10T02:44:14.839Z,7.33
2022-10-10T02:48:17.568Z,8.27
2022-10-10T02:52:20.636Z,7.55
2022-10-10T02:56:23.427Z,7.20
2022-10-10T03:00:26.790Z,7.53
2022-10-10T03:04:29.722Z,7.57
2022-10-10T03:08:32.803Z,8.25
2022-10-10T03:12:36.109Z,7.40
2022-10-10T03:16:38.982Z,8.93
2022-10-10T03:20:42.063Z,8.15
2022-10-10T03:24:45.490Z,8.88
2022-10-10T03:28:48.444Z,8.82
2022-10-10T03:32:51.456Z,9.68
2022-10-10T03:36:55.320Z,9.45
2022-10-10T03:40:58.137Z,9.85
2022-10-10T03:45:01.705Z,10.15
2022-10-10T03:49:04.550Z,10.18
2022-10-10T03:53:08.200Z,11.27
2022-10-10T03:57:11.049Z,14.15
2022-10-10T04:01:14.075Z,11.55
2022-10-10T04:05:17.310Z,11.55
2022-10-10T04:09:20.038Z,10.65
2022-10-10T04:13:25.978Z,11.73
2022-10-10T04:17:28.927Z,11.87
2022-10-10T04:21:31.692Z,11.63
2022-10-10T04:25:34.507Z,11.13
2022-10-10T04:29:37.619Z,12.13
2022-10-10T04:33:40.342Z,10.82
2022-10-10T04:37:43.146Z,10.40
2022-10-10T04:41:50.086Z,11.60
2022-10-10T04:45:52.899Z,11.93
2022-10-10T04:49:55.855Z,10.82
2022-10-10T04:53:59.251Z,11.13
2022-10-10T04:58:02.374Z,10.68
2022-10-10T05:02:06.870Z,10.65
2022-10-10T05:06:09.903Z,9.93
2022-10-10T05:10:12.830Z,9.65
2022-10-10T05:14:15.591Z,10.85
2022-10-10T05:18:27.584Z,10.38
2022-10-10T05:22:30.868Z,11.70
2022-10-10T05:26:33.782Z,11.63
2022-10-10T05:30:36.838Z,12.13
2022-10-10T05:34:39.610Z,11.25
2022-10-10T05:38:42.858Z,16.45
2022-10-10T05:42:46.077Z,11.07
2022-10-10T05:46:48.813Z,11.13
2022-10-10T05:50:55.133Z,10.70
2022-10-10T05:54:59.494Z,9.95
2022-10-10T05:59:02.426Z,10.88
2022-10-10T06:03:06.962Z,12.68
2022-10-10T06:07:09.897Z,11.38
2022-10-10T06:11:12.912Z,10.73
2022-10-10T06:15:15.744Z,12.00
2022-10-10T06:19:18.426Z,12.10
2022-10-10T06:23:21.713Z,11.18
2022-10-10T06:27:24.557Z,12.00
2022-10-10T06:31:27.909Z,13.25
2022-10-10T06:35:30.672Z,13.20
2022-10-10T06:39:34.518Z,13.20
2022-10-10T06:43:41.390Z,13.88
2022-10-10T06:47:44.190Z,14.68
2022-10-10T06:51:47.680Z,13.43
2022-10-10T06:55:50.340Z,11.57
2022-10-10T06:59:53.103Z,11.55
2022-10-10T07:03:56.164Z,11.80
2022-10-10T07:08:00.175Z,11.95
2022-10-10T07:12:03.207Z,13.18
2022-10-10T07:16:06.338Z,13.85
2022-10-10T07:20:09.614Z,13.50
2022-10-10T07:24:12.392Z,15.07
2022-10-10T07:28:15.488Z,13.50
2022-10-10T07:32:18.353Z,15.00
2022-10-10T07:36:21.114Z,13.60
2022-10-10T07:40:24.967Z,13.75
2022-10-10T07:44:50.829Z,13.85
2022-10-10T07:48:53.881Z,14.48
2022-10-10T07:52:57.821Z,14.65
2022-10-10T07:57:02.606Z,14.77
2022-10-10T08:01:08.089Z,13.32
2022-10-10T08:05:12.503Z,14.23
2022-10-10T08:09:17.195Z,11.77
2022-10-10T08:13:20.174Z,12.80
2022-10-10T08:17:22.837Z,12.85
2022-10-10T08:21:25.576Z,12.32
2022-10-10T08:25:28.309Z,12.48
2022-10-10T08:29:35.396Z,10.90
2022-10-10T08:33:41.311Z,9.40
2022-10-10T08:37:44.446Z,9.43
2022-10-10T08:41:55.320Z,9.82
2022-10-10T08:46:00.906Z,8.70
2022-10-10T08:54:32.029Z,9.70
2022-10-10T08:58:45.614Z,9.40
2022-10-10T09:02:54.052Z,8.48
2022-10-10T09:07:24.814Z,10.32
2022-10-10T09:11:46.020Z,10.05
2022-10-10T09:15:57.641Z,9.90
2022-10-10T09:20:19.286Z,10.77
2022-10-10T09:24:41.200Z,10.82
2022-10-10T09:28:56.092Z,11.45
2022-10-10T09:33:07.454Z,11.02
2022-10-10T09:37:42.643Z,10.35
2022-10-10T09:41:56.770Z,10.18
2022-10-10T09:46:00.373Z,9.32
2022-10-10T09:54:14.200Z,9.38
2022-10-10T09:58:37.425Z,9.30
2022-10-10T10:02:41.366Z,9.68
2022-10-10T10:06:50.333Z,10.30
2022-10-10T10:10:58.018Z,9.35
2022-10-10T10:15:04.874Z,9.18
2022-10-10T10:19:34.626Z,8.80
2022-10-10T10:23:44.379Z,8.20
2022-10-10T10:27:47.076Z,8.45
2022-10-10T10:32:00.512Z,8.52
2022-10-10T10:36:18.699Z,8.15
2022-10-10T10:40:55.948Z,8.77
2022-10-10T10:45:37.963Z,9.18
2022-10-10T10:49:54.254Z,11.57
2022-10-10T10:54:31.155Z,8.80
2022-10-10T10:59:17.027Z,8.63
2022-10-10T11:05:21.273Z,8.55
2022-10-10T11:08:03.424Z,9.10
2022-10-10T11:12:15.845Z,8.98
2022-10-10T11:21:05.481Z,9.30
2022-10-10T11:25:30.866Z,9.45
2022-10-10T11:30:07.011Z,9.07
2022-10-10T11:38:28.976Z,8.60
2022-10-10T11:42:53.906Z,9.00
2022-10-10T11:47:16.730Z,8.85
2022-10-10T11:51:30.996Z,8.52
2022-10-10T11:56:09.064Z,8.90
2022-10-10T12:00:17.146Z,9.18
2022-10-10T12:04:20.204Z,9.20
2022-10-10T12:08:40.434Z,9.68
2022-10-10T12:12:47.415Z,9.20
2022-10-10T12:16:50.314Z,9.75
2022-10-10T12:21:18.317Z,9.60
2022-10-10T12:25:25.392Z,9.57
2022-10-10T12:29:56.149Z,9.05
2022-10-10T12:34:02.380Z,9.25
2022-10-10T12:38:05.843Z,9.43
2022-10-10T12:42:30.445Z,9.02
2022-10-10T12:46:34.633Z,9.07
2022-10-10T12:50:40.521Z,8.85
2022-10-10T12:54:45.732Z,10.13
2022-10-10T12:58:49.873Z,10.45
2022-10-10T13:02:59.245Z,9.23
2022-10-10T13:07:04.773Z,9.65
2022-10-10T13:11:13.460Z,9.57
2022-10-10T13:15:22.511Z,10.23
2022-10-10T13:19:25.694Z,9.20
2022-10-10T13:23:28.769Z,9.40
2022-10-10T13:27:35.309Z,8.93
2022-10-10T13:31:38.809Z,9.55
2022-10-10T13:35:43.886Z,9.55
2022-10-10T13:39:48.816Z,9.57
2022-10-10T13:43:52.128Z,8.90
2022-10-10T13:48:00.942Z,9.70
2022-10-10T13:52:07.125Z,10.13
2022-10-10T13:56:15.321Z,10.05
2022-10-10T14:00:21.225Z,9.32
2022-10-10T14:04:38.317Z,10.33
2022-10-10T14:08:41.288Z,9.60
2022-10-10T14:12:56.997Z,9.43
2022-10-10T14:17:01.877Z,9.45
2022-10-10T14:21:05.496Z,9.57
2022-10-10T14:25:10.640Z,8.80
2022-10-10T14:29:17.718Z,8.55
2022-10-10T14:33:21.206Z,9.32
2022-10-10T14:37:26.906Z,8.35
2022-10-10T14:41:29.578Z,9.07
2022-10-10T14:45:32.576Z,9.85
2022-10-10T14:49:35.614Z,8.93
2022-10-10T14:53:39.527Z,9.75
2022-10-10T14:57:45.130Z,9.63
2022-10-10T15:01:56.663Z,9.20
2022-10-10T15:05:59.656Z,9.80
2022-10-10T15:14:26.198Z,9.23
2022-10-10T15:18:53.211Z,9.32
2022-10-10T15:22:51.849Z,9.52
2022-10-10T15:26:55.926Z,8.18
2022-10-10T15:30:59.693Z,8.48
2022-10-10T15:35:02.694Z,8.85
2022-10-10T15:39:05.895Z,8.30
2022-10-10T15:43:09.703Z,8.35
2022-10-10T15:47:18.235Z,9.27
2022-10-10T15:51:21.245Z,8.85
2022-10-10T15:55:23.979Z,8.00
2022-10-10T15:59:30.846Z,9.95
2022-10-10T16:03:36.533Z,11.05
2022-10-10T16:07:47.913Z,12.63
2022-10-10T16:11:51.453Z,8.05
2022-10-10T16:15:59.359Z,8.48
2022-10-10T16:20:08.663Z,8.80
2022-10-10T16:24:13.309Z,8.15
2022-10-10T16:28:16.357Z,7.20
2022-10-10T16:32:19.161Z,7.32
2022-10-10T16:36:28.616Z,7.97
2022-10-10T16:40:34.504Z,7.85
2022-10-10T16:44:51.534Z,8.40
2022-10-10T16:49:14.172Z,8.82
2022-10-10T16:53:24.107Z,8.85
2022-10-10T16:57:29.269Z,8.65
2022-10-10T17:01:34.131Z,9.00
2022-10-10T17:05:40.251Z,8.43
2022-10-10T17:09:47.699Z,8.57
2022-10-10T17:13:51.354Z,8.77
2022-10-10T17:17:54.278Z,8.80
2022-10-10T17:21:58.140Z,9.00
2022-10-10T17:26:01.957Z,8.57
2022-10-10T17:30:06.769Z,8.73
2022-10-10T17:34:14.277Z,9.27
2022-10-10T17:38:39.193Z,8.52
2022-10-10T17:42:43.487Z,9.10
2022-10-10T17:46:46.279Z,8.95
2022-10-10T17:50:49.135Z,8.60
2022-10-10T17:54:52.295Z,9.55
2022-10-10T17:58:56.343Z,8.38
2022-10-10T18:03:04.427Z,8.40
2022-10-10T18:07:10.804Z,8.35
2022-10-10T18:11:15.264Z,8.75
2022-10-10T18:15:18.200Z,8.98
2022-10-10T18:19:20.997Z,9.45
2022-10-10T18:23:23.888Z,8.95
2022-10-10T18:27:27.567Z,11.63
2022-10-10T18:31:33.974Z,9.85
2022-10-10T18:35:41.381Z,9.77
2022-10-10T18:39:44.160Z,10.23
2022-10-10T18:43:48.538Z,9.88
2022-10-10T18:47:51.829Z,9.00
2022-10-10T18:51:54.830Z,10.65
2022-10-10T18:56:00.349Z,10.07
2022-10-10T19:00:03.482Z,10.15
2022-10-10T19:04:09.025Z,11.18
2022-10-10T19:08:12.251Z,12.75
2022-10-10T19:12:15.619Z,12.98
2022-10-10T19:16:19.473Z,13.35
2022-10-10T19:20:27.073Z,12.77
2022-10-10T19:24:32.590Z,14.35
2022-10-10T19:28:36.445Z,13.75
2022-10-10T19:32:39.406Z,12.98
2022-10-10T19:36:42.448Z,13.52
2022-10-10T19:40:46.999Z,14.75
2022-10-10T19:44:49.870Z,13.55
2022-10-10T19:49:00.548Z,14.73
2022-10-10T19:53:05.153Z,14.20
2022-10-10T19:57:09.109Z,13.77
2022-10-10T20:01:14.756Z,14.35
2022-10-10T20:05:17.957Z,14.17
2022-10-10T20:09:20.952Z,14.23
2022-10-10T20:13:24.325Z,13.75
2022-10-10T20:17:28.645Z,13.40
2022-10-10T20:21:33.712Z,13.77
2022-10-10T20:25:41.655Z,14.30
2022-10-10T20:29:44.594Z,12.80
2022-10-10T20:33:49.093Z,13.18
2022-10-10T20:37:52.899Z,13.05
2022-10-10T20:41:55.644Z,13.20
2022-10-10T20:46:04.139Z,13.80
2022-10-10T20:50:07.549Z,13.18
2022-10-10T20:54:10.995Z,14.68
2022-10-10T20:58:13.732Z,13.38
2022-10-10T21:02:19.418Z,13.55
2022-10-10T21:06:26.463Z,14.30
2022-10-10T21:14:32.834Z,13.98
2022-10-10T21:18:36.029Z,13.82
2022-10-10T21:22:38.783Z,12.20
2022-10-10T21:26:42.479Z,13.32
2022-10-10T21:30:49.417Z,12.45
2022-10-10T21:34:56.313Z,12.68
2022-10-10T21:39:01.023Z,13.48
2022-10-10T21:43:03.769Z,12.80
2022-10-10T21:47:06.527Z,13.75
2022-10-10T21:51:10.089Z,13.65
2022-10-10T21:55:12.834Z,13.23
2022-10-10T21:59:15.589Z,12.95
2022-10-10T22:03:18.414Z,12.88
2022-10-10T22:07:21.256Z,12.52
2022-10-10T22:11:26.679Z,13.18
2022-10-10T22:15:29.858Z,12.27
2022-10-10T22:19:32.776Z,13.00
2022-10-10T22:23:36.090Z,12.38
2022-10-10T22:27:39.624Z,11.90
2022-10-10T22:31:42.397Z,12.15
2022-10-10T22:35:46.296Z,12.18
2022-10-10T22:39:49.097Z,13.02
2022-10-10T22:43:51.859Z,13.35
2022-10-10T22:47:54.994Z,11.75
2022-10-10T22:51:58.107Z,11.95
2022-10-10T22:56:01.933Z,11.05
2022-10-10T23:00:06.565Z,11.40
2022-10-10T23:04:10.521Z,11.35
2022-10-10T23:08:13.641Z,11.10
2022-10-10T23:12:16.515Z,9.52
2022-10-10T23:16:19.300Z,10.68
2022-10-10T23:20:22.104Z,9.15
2022-10-10T23:24:25.337Z,9.73
2022-10-10T23:28:28.296Z,9.75
2022-10-10T23:32:31.183Z,9.90
2022-10-10T23:36:34.171Z,10.35
2022-10-10T23:40:36.934Z,10.65
2022-10-10T23:44:39.664Z,11.10
2022-10-10T23:48:43.866Z,11.43
2022-10-10T23:52:57.704Z,10.23
2022-10-10T23:57:10.717Z,11.68
